createdAt,value
2023-04-30T00:00:10.992Z,18.01
2023-04-30T00:00:32.914Z,17.99
2023-04-30T00:00:54.841Z,17.96
2023-04-30T00:01:19.701Z,17.99
2023-04-30T00:01:42.809Z,17.92
2023-04-30T00:02:05.751Z,18.04
2023-04-30T00:02:27.618Z,18.06
2023-04-30T00:02:49.501Z,17.66
2023-04-30T00:03:13.587Z,17.87
2023-04-30T00:03:36.128Z,18.09
2023-04-30T00:03:58.618Z,18.07
2023-04-30T00:04:20.899Z,18.02
2023-04-30T00:04:45.320Z,18.08
2023-04-30T00:05:11.657Z,17.39
2023-04-30T00:05:33.685Z,18.04
2023-04-30T00:05:58.461Z,18.03
2023-04-30T00:06:22.721Z,18.06
2023-04-30T00:06:46.366Z,18.06
2023-04-30T00:07:10.206Z,17.66
2023-04-30T00:07:32.579Z,17.99
2023-04-30T00:07:54.947Z,17.97
2023-04-30T00:08:17.642Z,17.83
2023-04-30T00:08:43.450Z,18.03
2023-04-30T00:09:05.658Z,17.99
2023-04-30T00:09:30.181Z,18.01
2023-04-30T00:09:55.799Z,17.72
2023-04-30T00:10:20.667Z,17.97
2023-04-30T00:10:44.234Z,18.00
2023-04-30T00:11:06.263Z,18.02
2023-04-30T00:11:28.495Z,18.03
2023-04-30T00:11:53.610Z,18.05
2023-04-30T00:12:16.284Z,17.93
2023-04-30T00:12:38.986Z,18.05
2023-04-30T00:13:04.236Z,18.01
2023-04-30T00:13:31.896Z,18.00
2023-04-30T00:13:53.792Z,17.98
2023-04-30T00:14:18.700Z,17.92
2023-04-30T00:14:41.354Z,17.55
2023-04-30T00:15:07.330Z,17.89
2023-04-30T00:15:30.308Z,17.92
2023-04-30T00:15:54.675Z,17.90
2023-04-30T00:16:17.076Z,17.94
2023-04-30T00:16:41.233Z,17.94
2023-04-30T00:17:03.751Z,17.74
2023-04-30T00:17:28.136Z,17.91
2023-04-30T00:17:53.400Z,17.72
2023-04-30T00:18:15.574Z,17.92
2023-04-30T00:18:38.340Z,17.97
2023-04-30T00:19:05.033Z,17.99
2023-04-30T00:19:30.164Z,17.50
2023-04-30T00:19:52.714Z,18.03
2023-04-30T00:20:50.207Z,17.93
2023-04-30T00:21:12.033Z,17.98
2023-04-30T00:21:34.171Z,17.90
2023-04-30T00:21:56.858Z,17.96
2023-04-30T00:22:20.110Z,17.99
2023-04-30T00:22:41.975Z,17.88
2023-04-30T00:23:03.968Z,17.89
2023-04-30T00:23:26.141Z,17.86
2023-04-30T00:23:49.384Z,17.89
2023-04-30T00:24:11.396Z,17.58
2023-04-30T00:24:33.616Z,17.77
2023-04-30T00:24:55.630Z,17.91
2023-04-30T00:25:19.041Z,17.93
2023-04-30T00:25:40.940Z,17.76
2023-04-30T00:26:03.166Z,17.90
2023-04-30T00:26:26.802Z,17.87
2023-04-30T00:26:50.937Z,17.91
2023-04-30T00:27:13.062Z,17.86
2023-04-30T00:27:34.976Z,17.50
2023-04-30T00:27:57.626Z,17.89
2023-04-30T00:28:20.577Z,17.85
2023-04-30T00:28:42.583Z,17.89
2023-04-30T00:29:05.619Z,17.94
2023-04-30T00:29:27.626Z,17.94
2023-04-30T00:29:51.052Z,17.72
2023-04-30T00:30:13.458Z,17.56
2023-04-30T00:30:36.468Z,17.44
2023-04-30T00:30:58.564Z,17.73
2023-04-30T00:31:21.553Z,17.92
2023-04-30T00:31:45.704Z,17.88
2023-04-30T00:32:07.805Z,17.86
2023-04-30T00:32:32.448Z,17.91
2023-04-30T00:32:57.585Z,17.93
2023-04-30T00:33:20.107Z,17.89
2023-04-30T00:33:44.196Z,17.90
2023-04-30T00:34:06.456Z,17.94
2023-04-30T00:34:29.735Z,17.91
2023-04-30T00:34:51.885Z,17.90
2023-04-30T00:35:13.773Z,17.84
2023-04-30T00:35:37.256Z,17.83
2023-04-30T00:36:03.411Z,17.61
2023-04-30T00:36:26.854Z,17.89
2023-04-30T00:36:49.005Z,17.90
2023-04-30T00:37:12.892Z,17.85
2023-04-30T00:37:38.388Z,17.60
2023-04-30T00:38:00.718Z,17.62
2023-04-30T00:38:22.733Z,17.86
2023-04-30T00:38:44.557Z,17.88
2023-04-30T00:39:07.516Z,17.84
2023-04-30T00:39:29.523Z,17.87
2023-04-30T00:39:51.620Z,17.87
2023-04-30T00:40:13.534Z,17.85
2023-04-30T00:40:36.600Z,17.78
2023-04-30T00:40:58.550Z,17.81
2023-04-30T00:41:22.270Z,17.22
2023-04-30T00:41:45.321Z,17.81
2023-04-30T00:42:08.416Z,17.36
2023-04-30T00:42:30.496Z,17.79
2023-04-30T00:42:53.573Z,17.61
2023-04-30T00:43:15.780Z,17.27
2023-04-30T00:43:40.658Z,17.34
2023-04-30T00:44:03.437Z,17.43
2023-04-30T00:44:26.401Z,17.69
2023-04-30T00:44:49.891Z,17.34
2023-04-30T00:45:18.356Z,17.71
2023-04-30T00:45:41.893Z,17.64
2023-04-30T00:46:07.075Z,17.64
2023-04-30T00:46:32.164Z,17.30
2023-04-30T00:46:54.342Z,17.14
2023-04-30T00:47:18.031Z,17.65
2023-04-30T00:47:40.089Z,17.28
2023-04-30T00:48:03.982Z,17.03
2023-04-30T00:48:28.825Z,17.64
2023-04-30T00:48:51.318Z,17.64
2023-04-30T00:49:13.415Z,17.03
2023-04-30T00:49:35.398Z,17.65
2023-04-30T00:50:01.182Z,17.61
2023-04-30T00:50:23.993Z,17.41
2023-04-30T00:50:47.959Z,17.63
2023-04-30T00:51:11.698Z,17.08
2023-04-30T00:51:35.269Z,17.58
2023-04-30T00:51:58.610Z,17.55
2023-04-30T00:52:24.368Z,17.59
2023-04-30T00:52:48.796Z,17.58
2023-04-30T00:53:14.344Z,17.52
2023-04-30T00:53:38.085Z,16.89
2023-04-30T00:54:03.155Z,17.28
2023-04-30T00:54:28.461Z,17.59
2023-04-30T00:54:52.053Z,17.39
2023-04-30T00:55:16.537Z,17.42
2023-04-30T00:55:40.427Z,17.60
2023-04-30T00:56:03.170Z,17.48
2023-04-30T00:56:25.760Z,17.51
2023-04-30T00:56:48.907Z,17.62
2023-04-30T00:57:13.519Z,17.42
2023-04-30T00:57:37.828Z,17.17
2023-04-30T00:58:00.743Z,17.34
2023-04-30T00:58:23.458Z,17.32
2023-04-30T00:58:46.848Z,17.30
2023-04-30T00:59:09.233Z,17.57
2023-04-30T00:59:33.716Z,16.81
2023-04-30T00:59:56.145Z,17.54
2023-04-30T01:00:19.019Z,17.53
2023-04-30T01:00:47.061Z,17.52
2023-04-30T01:01:10.335Z,17.14
2023-04-30T01:01:36.054Z,16.90
2023-04-30T01:01:59.841Z,17.30
2023-04-30T01:02:24.058Z,17.33
2023-04-30T01:02:45.996Z,17.46
2023-04-30T01:03:09.195Z,17.52
2023-04-30T01:03:31.089Z,17.00
2023-04-30T01:03:53.541Z,17.23
2023-04-30T01:04:17.126Z,17.13
2023-04-30T01:04:39.980Z,17.45
2023-04-30T01:05:02.705Z,17.40
2023-04-30T01:05:25.028Z,17.37
2023-04-30T01:05:49.731Z,17.45
2023-04-30T01:06:15.268Z,17.39
2023-04-30T01:06:39.918Z,17.37
2023-04-30T01:07:03.404Z,17.39
2023-04-30T01:07:28.464Z,17.38
2023-04-30T01:07:52.470Z,17.07
2023-04-30T01:08:14.496Z,16.87
2023-04-30T01:08:37.630Z,17.31
2023-04-30T01:08:59.870Z,17.30
2023-04-30T01:09:22.072Z,17.37
2023-04-30T01:09:46.441Z,17.35
2023-04-30T01:10:09.932Z,17.31
2023-04-30T01:10:42.457Z,17.34
2023-04-30T01:11:17.577Z,17.26
2023-04-30T01:11:53.638Z,17.24
2023-04-30T01:12:27.842Z,17.03
2023-04-30T01:12:58.872Z,17.17
2023-04-30T01:13:30.714Z,16.99
2023-04-30T01:14:00.366Z,17.17
2023-04-30T01:14:36.678Z,16.98
2023-04-30T01:15:09.376Z,17.17
2023-04-30T01:15:41.121Z,17.22
2023-04-30T01:16:17.749Z,17.16
2023-04-30T01:16:49.402Z,17.20
2023-04-30T01:17:23.248Z,17.21
2023-04-30T01:17:52.297Z,17.16
2023-04-30T01:18:21.204Z,17.15
2023-04-30T01:18:51.039Z,17.12
2023-04-30T01:19:29.948Z,17.13
2023-04-30T01:19:53.258Z,17.14
2023-04-30T01:20:20.051Z,17.12
2023-04-30T01:20:51.674Z,17.09
2023-04-30T01:21:20.473Z,17.08
2023-04-30T01:21:45.537Z,16.73
2023-04-30T01:22:12.654Z,16.85
2023-04-30T01:22:44.048Z,17.08
2023-04-30T01:23:16.968Z,17.09
2023-04-30T01:23:55.178Z,16.63
2023-04-30T01:24:36.952Z,17.07
2023-04-30T01:25:21.705Z,16.90
2023-04-30T01:25:54.241Z,17.00
2023-04-30T01:26:22.544Z,17.03
2023-04-30T01:26:57.830Z,17.01
2023-04-30T01:27:32.040Z,17.01
2023-04-30T01:28:04.125Z,16.98
2023-04-30T01:28:29.559Z,16.28
2023-04-30T01:28:54.441Z,16.63
2023-04-30T01:29:19.316Z,16.33
2023-04-30T01:29:42.550Z,16.76
2023-04-30T01:30:07.818Z,17.00
2023-04-30T01:30:32.444Z,16.68
2023-04-30T01:30:54.495Z,17.00
2023-04-30T01:31:20.977Z,16.95
2023-04-30T01:31:44.379Z,16.41
2023-04-30T01:32:08.147Z,17.03
2023-04-30T01:32:30.292Z,17.08
2023-04-30T01:32:52.624Z,17.07
2023-04-30T01:33:18.571Z,17.06
2023-04-30T01:33:42.272Z,17.01
2023-04-30T01:34:04.933Z,16.85
2023-04-30T01:34:26.996Z,16.83
2023-04-30T01:34:48.867Z,16.48
2023-04-30T01:35:12.620Z,17.09
2023-04-30T01:36:13.337Z,17.05
2023-04-30T01:36:52.130Z,17.07
2023-04-30T01:37:22.674Z,17.07
2023-04-30T01:38:01.731Z,17.05
2023-04-30T01:38:36.833Z,16.96
2023-04-30T01:39:13.590Z,16.59
2023-04-30T01:39:50.951Z,17.07
2023-04-30T01:40:28.574Z,16.82
2023-04-30T01:41:03.086Z,16.59
2023-04-30T01:41:32.793Z,17.02
2023-04-30T01:42:04.206Z,17.02
2023-04-30T01:42:37.474Z,17.04
2023-04-30T01:43:11.201Z,17.03
2023-04-30T01:43:41.278Z,17.06
2023-04-30T01:44:26.483Z,16.35
2023-04-30T01:45:14.769Z,16.71
2023-04-30T01:45:53.713Z,16.30
2023-04-30T01:46:23.526Z,16.79
2023-04-30T01:46:56.117Z,16.94
2023-04-30T01:47:28.149Z,16.95
2023-04-30T01:47:55.635Z,16.28
2023-04-30T01:48:27.817Z,16.68
2023-04-30T01:48:59.391Z,16.68
2023-04-30T01:49:32.100Z,16.89
2023-04-30T01:50:00.357Z,16.68
2023-04-30T01:50:30.372Z,16.39
2023-04-30T01:51:00.180Z,16.65
2023-04-30T01:51:31.131Z,16.67
2023-04-30T01:52:03.992Z,16.25
2023-04-30T01:52:37.044Z,16.87
2023-04-30T01:53:02.268Z,16.70
2023-04-30T01:53:35.037Z,16.31
2023-04-30T01:54:01.031Z,16.59
2023-04-30T01:54:31.673Z,16.44
2023-04-30T01:55:00.622Z,16.32
2023-04-30T01:55:27.946Z,17.00
2023-04-30T01:55:59.015Z,16.37
2023-04-30T01:56:27.413Z,17.03
2023-04-30T01:56:58.292Z,17.07
2023-04-30T01:57:26.841Z,16.61
2023-04-30T01:57:59.805Z,16.97
2023-04-30T01:58:24.948Z,16.80
2023-04-30T01:58:50.155Z,16.84
2023-04-30T01:59:14.769Z,17.08
2023-04-30T01:59:39.330Z,16.58
2023-04-30T02:00:02.790Z,17.10
2023-04-30T02:00:35.606Z,16.64
2023-04-30T02:00:57.840Z,16.64
2023-04-30T02:01:30.410Z,17.06
2023-04-30T02:01:54.083Z,17.06
2023-04-30T02:02:16.332Z,17.05
2023-04-30T02:02:38.429Z,17.09
2023-04-30T02:03:01.315Z,17.07
2023-04-30T02:03:24.932Z,17.01
2023-04-30T02:03:48.419Z,16.65
2023-04-30T02:04:10.833Z,17.08
2023-04-30T02:04:33.928Z,17.06
2023-04-30T02:04:56.441Z,17.07
2023-04-30T02:05:19.666Z,16.84
2023-04-30T02:05:43.998Z,17.08
2023-04-30T02:06:06.239Z,17.09
2023-04-30T02:06:30.102Z,16.58
2023-04-30T02:06:53.349Z,16.45
2023-04-30T02:07:29.284Z,17.09
2023-04-30T02:07:52.711Z,16.83
2023-04-30T02:08:15.646Z,17.07
2023-04-30T02:08:38.999Z,16.52
2023-04-30T02:09:04.719Z,16.95
2023-04-30T02:09:26.666Z,17.04
2023-04-30T02:09:49.947Z,17.02
2023-04-30T02:10:19.564Z,17.02
2023-04-30T02:10:42.724Z,17.01
2023-04-30T02:11:05.984Z,16.99
2023-04-30T02:11:29.463Z,16.96
2023-04-30T02:11:53.377Z,16.56
2023-04-30T02:12:16.827Z,16.90
2023-04-30T02:12:38.790Z,16.19
2023-04-30T02:13:06.785Z,16.15
2023-04-30T02:13:42.648Z,16.86
2023-04-30T02:14:04.865Z,16.70
2023-04-30T02:14:27.495Z,16.85
2023-04-30T02:14:50.007Z,16.63
2023-04-30T02:15:14.416Z,16.30
2023-04-30T02:15:36.847Z,16.39
2023-04-30T02:15:58.708Z,16.88
2023-04-30T02:16:20.834Z,16.52
2023-04-30T02:16:45.276Z,16.88
2023-04-30T02:17:07.430Z,16.31
2023-04-30T02:17:32.288Z,16.90
2023-04-30T02:17:55.877Z,16.38
2023-04-30T02:18:19.584Z,16.13
2023-04-30T02:18:41.543Z,16.77
2023-04-30T02:19:03.622Z,16.11
2023-04-30T02:19:25.842Z,16.77
2023-04-30T02:19:48.611Z,16.73
2023-04-30T02:20:14.040Z,16.47
2023-04-30T02:20:36.193Z,16.45
2023-04-30T02:20:58.480Z,16.03
2023-04-30T02:21:22.727Z,16.72
2023-04-30T02:21:48.136Z,16.53
2023-04-30T02:22:10.497Z,16.30
2023-04-30T02:22:33.150Z,16.71
2023-04-30T02:22:55.440Z,16.46
2023-04-30T02:23:18.468Z,16.70
2023-04-30T02:23:43.935Z,16.07
2023-04-30T02:24:07.838Z,16.52
2023-04-30T02:24:30.928Z,16.77
2023-04-30T02:24:56.154Z,16.29
2023-04-30T02:25:20.757Z,16.75
2023-04-30T02:25:44.976Z,16.81
2023-04-30T02:26:06.782Z,16.58
2023-04-30T02:26:28.599Z,16.77
2023-04-30T02:26:57.106Z,16.79
2023-04-30T02:27:21.069Z,16.74
2023-04-30T02:27:43.359Z,16.70
2023-04-30T02:28:08.845Z,16.08
2023-04-30T02:28:37.144Z,16.72
2023-04-30T02:29:00.760Z,16.45
2023-04-30T02:29:24.005Z,16.69
2023-04-30T02:29:48.397Z,16.68
2023-04-30T02:30:12.139Z,16.71
2023-04-30T02:30:38.660Z,16.39
2023-04-30T02:31:02.144Z,16.75
2023-04-30T02:31:25.735Z,16.26
2023-04-30T02:31:47.977Z,16.45
2023-04-30T02:32:10.285Z,16.74
2023-04-30T02:32:36.221Z,16.65
2023-04-30T02:33:02.763Z,16.64
2023-04-30T02:33:25.129Z,16.16
2023-04-30T02:33:47.094Z,16.64
2023-04-30T02:34:11.983Z,16.63
2023-04-30T02:34:35.413Z,16.45
2023-04-30T02:35:00.297Z,16.69
2023-04-30T02:35:22.647Z,16.68
2023-04-30T02:35:49.394Z,16.10
2023-04-30T02:36:13.642Z,16.62
2023-04-30T02:36:37.577Z,16.02
2023-04-30T02:37:00.177Z,16.00
2023-04-30T02:37:25.908Z,16.66
2023-04-30T02:37:49.371Z,16.64
2023-04-30T02:38:11.344Z,16.38
2023-04-30T02:38:35.957Z,16.63
2023-04-30T02:38:58.532Z,16.57
2023-04-30T02:39:22.334Z,16.57
2023-04-30T02:39:44.856Z,16.04
2023-04-30T02:40:10.173Z,16.55
2023-04-30T02:40:35.864Z,16.51
2023-04-30T02:40:58.443Z,16.54
2023-04-30T02:41:21.647Z,16.34
2023-04-30T02:41:48.233Z,15.96
2023-04-30T02:42:11.851Z,16.41
2023-04-30T02:42:35.983Z,16.54
2023-04-30T02:43:04.099Z,16.47
2023-04-30T02:43:27.717Z,16.38
2023-04-30T02:43:54.331Z,16.06
2023-04-30T02:44:18.965Z,16.43
2023-04-30T02:44:45.157Z,16.48
2023-04-30T02:45:11.610Z,16.21
2023-04-30T02:45:33.961Z,16.55
2023-04-30T02:46:00.444Z,16.57
2023-04-30T02:46:23.865Z,16.47
2023-04-30T02:46:47.143Z,16.56
2023-04-30T02:47:14.851Z,16.65
2023-04-30T02:47:40.976Z,16.03
2023-04-30T02:48:05.816Z,16.64
2023-04-30T02:48:30.722Z,16.64
2023-04-30T02:48:56.531Z,16.67
2023-04-30T02:49:19.526Z,16.64
2023-04-30T02:49:48.017Z,16.38
2023-04-30T02:50:10.827Z,16.65
2023-04-30T02:50:35.194Z,16.60
2023-04-30T02:50:59.154Z,16.59
2023-04-30T02:51:21.958Z,16.20
2023-04-30T02:51:45.571Z,16.55
2023-04-30T02:52:09.896Z,15.88
2023-04-30T02:52:33.074Z,16.52
2023-04-30T02:52:58.870Z,16.27
2023-04-30T02:53:22.113Z,16.42
2023-04-30T02:53:50.658Z,16.59
2023-04-30T02:54:17.432Z,15.98
2023-04-30T02:54:39.720Z,16.57
2023-04-30T02:55:03.274Z,16.28
2023-04-30T02:55:25.808Z,16.55
2023-04-30T02:55:49.214Z,16.33
2023-04-30T02:56:11.190Z,16.50
2023-04-30T02:56:36.995Z,16.47
2023-04-30T02:57:00.327Z,16.53
2023-04-30T02:57:24.216Z,16.08
2023-04-30T02:57:48.184Z,16.32
2023-04-30T02:58:14.044Z,16.49
2023-04-30T02:58:38.329Z,16.43
2023-04-30T02:59:02.753Z,16.43
2023-04-30T02:59:30.992Z,16.44
2023-04-30T02:59:53.198Z,16.40
2023-04-30T03:00:22.119Z,15.89
2023-04-30T03:00:46.660Z,16.36
2023-04-30T03:01:15.297Z,15.75
2023-04-30T03:01:38.651Z,16.36
2023-04-30T03:02:03.103Z,16.32
2023-04-30T03:02:25.761Z,15.92
2023-04-30T03:02:58.005Z,16.31
2023-04-30T03:03:21.598Z,16.39
2023-04-30T03:03:45.273Z,16.35
2023-04-30T03:04:10.097Z,16.37
2023-04-30T03:04:33.420Z,16.37
2023-04-30T03:04:55.672Z,16.26
2023-04-30T03:05:17.894Z,15.60
2023-04-30T03:05:41.540Z,16.32
2023-04-30T03:06:05.879Z,16.26
2023-04-30T03:06:28.191Z,16.25
2023-04-30T03:06:50.000Z,15.99
2023-04-30T03:07:13.299Z,15.58
2023-04-30T03:07:36.573Z,15.93
2023-04-30T03:07:58.613Z,16.10
2023-04-30T03:08:20.960Z,15.86
2023-04-30T03:08:45.122Z,15.96
2023-04-30T03:09:07.414Z,15.76
2023-04-30T03:09:31.494Z,15.97
2023-04-30T03:09:53.779Z,15.94
2023-04-30T03:10:19.120Z,16.25
2023-04-30T03:10:41.261Z,15.66
2023-04-30T03:11:04.087Z,15.85
2023-04-30T03:11:25.975Z,15.63
2023-04-30T03:11:48.851Z,16.25
2023-04-30T03:12:10.983Z,16.26
2023-04-30T03:12:33.034Z,16.04
2023-04-30T03:12:55.202Z,16.29
2023-04-30T03:13:18.143Z,16.31
2023-04-30T03:13:39.966Z,15.79
2023-04-30T03:14:05.085Z,16.30
2023-04-30T03:14:27.121Z,15.87
2023-04-30T03:14:52.566Z,15.66
2023-04-30T03:15:14.757Z,15.73
2023-04-30T03:15:36.646Z,15.77
2023-04-30T03:15:59.668Z,16.26
2023-04-30T03:16:22.491Z,15.99
2023-04-30T03:16:46.496Z,15.85
2023-04-30T03:17:08.718Z,16.27
2023-04-30T03:17:30.709Z,15.66
2023-04-30T03:17:52.746Z,16.05
2023-04-30T03:18:16.056Z,15.99
2023-04-30T03:18:38.943Z,16.21
2023-04-30T03:19:01.864Z,15.97
2023-04-30T03:19:25.731Z,15.92
2023-04-30T03:19:49.144Z,16.09
2023-04-30T03:20:11.800Z,16.15
2023-04-30T03:20:33.716Z,16.16
2023-04-30T03:20:56.061Z,15.91
2023-04-30T03:21:19.252Z,16.14
2023-04-30T03:21:41.569Z,15.47
2023-04-30T03:22:03.861Z,15.72
2023-04-30T03:22:26.736Z,16.13
2023-04-30T03:22:48.842Z,16.18
2023-04-30T03:23:11.851Z,16.18
2023-04-30T03:23:34.010Z,16.18
2023-04-30T03:23:56.113Z,16.16
2023-04-30T03:24:19.414Z,15.72
2023-04-30T03:24:42.850Z,16.13
2023-04-30T03:25:07.144Z,15.66
2023-04-30T03:25:30.722Z,15.78
2023-04-30T03:25:59.960Z,15.87
2023-04-30T03:26:24.382Z,16.19
2023-04-30T03:26:47.178Z,16.24
2023-04-30T03:27:09.525Z,16.26
2023-04-30T03:27:31.610Z,16.25
2023-04-30T03:27:54.940Z,15.87
2023-04-30T03:28:19.400Z,15.97
2023-04-30T03:28:43.167Z,15.92
2023-04-30T03:29:10.852Z,15.77
2023-04-30T03:29:34.799Z,15.90
2023-04-30T03:29:58.331Z,16.18
2023-04-30T03:30:21.596Z,16.17
2023-04-30T03:30:43.793Z,16.15
2023-04-30T03:31:05.701Z,16.19
2023-04-30T03:31:28.595Z,16.19
2023-04-30T03:31:53.189Z,16.16
2023-04-30T03:32:18.582Z,16.05
2023-04-30T03:32:41.824Z,15.92
2023-04-30T03:33:06.817Z,16.03
2023-04-30T03:33:29.245Z,15.80
2023-04-30T03:33:53.112Z,16.02
2023-04-30T03:34:16.521Z,15.93
2023-04-30T03:34:38.887Z,16.15
2023-04-30T03:35:01.113Z,16.15
2023-04-30T03:35:26.318Z,15.46
2023-04-30T03:35:50.452Z,15.67
2023-04-30T03:36:20.064Z,16.08
2023-04-30T03:36:43.348Z,16.05
2023-04-30T03:37:06.769Z,16.14
2023-04-30T03:37:32.509Z,15.83
2023-04-30T03:37:58.728Z,16.14
2023-04-30T03:38:21.068Z,16.15
2023-04-30T03:38:43.824Z,15.99
2023-04-30T03:39:09.821Z,16.11
2023-04-30T03:39:31.629Z,15.46
2023-04-30T03:39:54.418Z,15.96
2023-04-30T03:40:18.262Z,16.07
2023-04-30T03:40:41.237Z,16.08
2023-04-30T03:41:05.336Z,16.06
2023-04-30T03:41:27.589Z,15.98
2023-04-30T03:41:49.981Z,15.99
2023-04-30T03:42:13.420Z,15.97
2023-04-30T03:42:35.377Z,15.98
2023-04-30T03:42:57.907Z,15.97
2023-04-30T03:43:19.910Z,15.98
2023-04-30T03:43:44.017Z,15.47
2023-04-30T03:44:15.816Z,16.02
2023-04-30T03:44:39.617Z,15.90
2023-04-30T03:45:03.714Z,16.06
2023-04-30T03:45:26.010Z,15.84
2023-04-30T03:45:52.828Z,15.54
2023-04-30T03:46:17.073Z,15.81
2023-04-30T03:46:39.763Z,16.16
2023-04-30T03:47:04.773Z,15.92
2023-04-30T03:47:28.650Z,16.14
2023-04-30T03:47:52.816Z,15.64
2023-04-30T03:48:15.479Z,16.17
2023-04-30T03:48:37.719Z,16.15
2023-04-30T03:48:59.666Z,15.89
2023-04-30T03:49:22.420Z,16.11
2023-04-30T03:49:45.113Z,16.06
2023-04-30T03:50:08.943Z,15.59
2023-04-30T03:50:31.626Z,15.82
2023-04-30T03:50:54.880Z,15.79
2023-04-30T03:51:17.634Z,15.78
2023-04-30T03:51:41.956Z,15.63
2023-04-30T03:52:05.551Z,15.96
2023-04-30T03:52:29.265Z,15.94
2023-04-30T03:52:54.440Z,15.94
2023-04-30T03:53:16.448Z,15.92
2023-04-30T03:53:38.302Z,15.90
2023-04-30T03:54:01.525Z,15.93
2023-04-30T03:54:23.625Z,15.95
2023-04-30T03:54:45.454Z,15.89
2023-04-30T03:55:07.938Z,15.96
2023-04-30T03:55:31.670Z,15.64
2023-04-30T03:55:54.332Z,16.03
2023-04-30T03:56:16.490Z,15.99
2023-04-30T03:56:38.615Z,15.99
2023-04-30T03:57:04.749Z,16.00
2023-04-30T03:57:27.574Z,15.99
2023-04-30T03:57:49.900Z,15.68
2023-04-30T03:58:12.300Z,15.71
2023-04-30T03:58:35.724Z,15.59
2023-04-30T03:58:57.634Z,15.84
2023-04-30T03:59:23.005Z,15.38
2023-04-30T03:59:44.893Z,16.03
2023-04-30T04:00:11.761Z,15.35
2023-04-30T04:00:40.476Z,15.50
2023-04-30T04:01:02.500Z,16.04
2023-04-30T04:01:27.030Z,15.81
2023-04-30T04:01:50.122Z,16.02
2023-04-30T04:02:12.281Z,15.30
2023-04-30T04:02:35.378Z,15.44
2023-04-30T04:02:58.369Z,15.91
2023-04-30T04:03:23.560Z,16.07
2023-04-30T04:03:46.875Z,15.83
2023-04-30T04:04:09.287Z,15.78
2023-04-30T04:04:32.027Z,15.60
2023-04-30T04:05:03.973Z,15.73
2023-04-30T04:05:26.226Z,15.58
2023-04-30T04:05:49.356Z,15.97
2023-04-30T04:06:15.205Z,15.55
2023-04-30T04:06:38.631Z,16.01
2023-04-30T04:07:03.181Z,16.01
2023-04-30T04:07:26.958Z,15.98
2023-04-30T04:07:50.396Z,15.98
2023-04-30T04:08:13.710Z,15.65
2023-04-30T04:08:36.751Z,15.73
2023-04-30T04:08:59.150Z,15.50
2023-04-30T04:09:23.073Z,15.88
2023-04-30T04:09:45.344Z,15.89
2023-04-30T04:10:08.589Z,15.22
2023-04-30T04:10:30.514Z,15.79
2023-04-30T04:10:52.902Z,15.60
2023-04-30T04:11:15.965Z,15.16
2023-04-30T04:11:37.880Z,15.75
2023-04-30T04:12:00.132Z,15.75
2023-04-30T04:12:24.614Z,15.15
2023-04-30T04:12:47.927Z,15.80
2023-04-30T04:13:09.863Z,15.79
2023-04-30T04:13:34.065Z,15.76
2023-04-30T04:13:57.946Z,15.80
2023-04-30T04:14:20.168Z,15.07
2023-04-30T04:14:44.868Z,15.81
2023-04-30T04:15:08.435Z,15.82
2023-04-30T04:15:30.592Z,15.66
2023-04-30T04:15:52.837Z,15.84
2023-04-30T04:16:17.771Z,15.87
2023-04-30T04:16:40.541Z,15.69
2023-04-30T04:17:05.726Z,15.33
2023-04-30T04:17:29.254Z,15.80
2023-04-30T04:17:55.289Z,15.81
2023-04-30T04:18:17.360Z,15.80
2023-04-30T04:18:39.964Z,15.77
2023-04-30T04:19:01.869Z,15.19
2023-04-30T04:19:27.312Z,15.72
2023-04-30T04:19:52.857Z,15.69
2023-04-30T04:20:22.160Z,15.73
2023-04-30T04:20:45.665Z,15.47
2023-04-30T04:21:08.914Z,15.82
2023-04-30T04:21:35.654Z,15.80
2023-04-30T04:22:05.652Z,15.72
2023-04-30T04:22:31.187Z,15.82
2023-04-30T04:22:57.397Z,15.82
2023-04-30T04:23:22.500Z,15.09
2023-04-30T04:23:46.131Z,15.77
2023-04-30T04:24:12.524Z,15.67
2023-04-30T04:24:38.313Z,15.45
2023-04-30T04:25:03.990Z,15.73
2023-04-30T04:25:30.267Z,15.72
2023-04-30T04:25:54.754Z,15.77
2023-04-30T04:26:20.838Z,15.55
2023-04-30T04:26:45.062Z,15.79
2023-04-30T04:27:14.040Z,15.76
2023-04-30T04:27:43.656Z,15.82
2023-04-30T04:28:08.215Z,15.67
2023-04-30T04:28:32.241Z,15.81
2023-04-30T04:28:59.648Z,15.65
2023-04-30T04:29:23.962Z,15.82
2023-04-30T04:29:49.514Z,15.30
2023-04-30T04:30:14.550Z,15.54
2023-04-30T04:30:37.279Z,15.86
2023-04-30T04:31:03.158Z,15.87
2023-04-30T04:31:27.212Z,15.63
2023-04-30T04:31:49.534Z,15.89
2023-04-30T04:32:14.203Z,15.73
2023-04-30T04:32:50.061Z,15.17
2023-04-30T04:33:14.223Z,15.74
2023-04-30T04:33:37.428Z,15.85
2023-04-30T04:34:01.301Z,15.87
2023-04-30T04:34:23.851Z,15.72
2023-04-30T04:34:50.145Z,15.86
2023-04-30T04:35:14.964Z,15.86
2023-04-30T04:35:38.581Z,15.80
2023-04-30T04:36:00.925Z,15.87
2023-04-30T04:36:24.939Z,15.84
2023-04-30T04:36:47.563Z,15.87
2023-04-30T04:37:10.240Z,15.85
2023-04-30T04:37:33.510Z,15.85
2023-04-30T04:37:56.892Z,15.77
2023-04-30T04:38:21.497Z,15.72
2023-04-30T04:38:44.306Z,15.81
2023-04-30T04:39:08.935Z,15.65
2023-04-30T04:39:37.431Z,15.50
2023-04-30T04:40:01.253Z,15.84
2023-04-30T04:40:24.555Z,15.84
2023-04-30T04:40:57.841Z,15.47
2023-04-30T04:41:21.463Z,15.84
2023-04-30T04:41:44.623Z,15.83
2023-04-30T04:42:12.685Z,15.64
2023-04-30T04:42:39.981Z,15.84
2023-04-30T04:43:05.465Z,15.70
2023-04-30T04:43:29.248Z,15.90
2023-04-30T04:43:52.155Z,15.38
2023-04-30T04:44:16.261Z,15.90
2023-04-30T04:44:49.713Z,15.96
2023-04-30T04:45:21.011Z,15.91
2023-04-30T04:45:47.896Z,15.83
2023-04-30T04:46:14.386Z,15.97
2023-04-30T04:46:38.875Z,15.94
2023-04-30T04:47:05.211Z,15.94
2023-04-30T04:47:32.161Z,15.93
2023-04-30T04:47:57.014Z,15.68
2023-04-30T04:48:22.305Z,15.92
2023-04-30T04:48:45.250Z,15.58
2023-04-30T04:49:09.551Z,15.88
2023-04-30T04:49:35.444Z,15.72
2023-04-30T04:49:57.975Z,15.85
2023-04-30T04:50:22.204Z,15.55
2023-04-30T04:50:45.423Z,15.93
2023-04-30T04:51:07.179Z,15.95
2023-04-30T04:51:29.367Z,15.99
2023-04-30T04:51:51.315Z,15.97
2023-04-30T04:52:13.413Z,15.97
2023-04-30T04:52:36.832Z,15.53
2023-04-30T04:52:58.885Z,15.78
2023-04-30T04:53:22.323Z,15.89
2023-04-30T04:53:46.737Z,15.99
2023-04-30T04:54:09.865Z,15.60
2023-04-30T04:54:33.652Z,15.99
2023-04-30T04:54:57.234Z,16.03
2023-04-30T04:55:19.759Z,16.06
2023-04-30T04:55:43.808Z,16.11
2023-04-30T04:56:07.536Z,16.13
2023-04-30T04:56:29.564Z,16.18
2023-04-30T04:56:51.822Z,16.16
2023-04-30T04:57:18.705Z,16.16
2023-04-30T04:57:42.038Z,16.16
2023-04-30T04:58:03.926Z,16.12
2023-04-30T04:58:26.122Z,16.11
2023-04-30T04:58:49.272Z,16.12
2023-04-30T04:59:11.241Z,16.10
2023-04-30T04:59:33.604Z,15.44
2023-04-30T04:59:55.971Z,16.07
2023-04-30T05:00:22.459Z,16.04
2023-04-30T05:00:44.543Z,16.04
2023-04-30T05:01:06.565Z,16.04
2023-04-30T05:01:29.632Z,16.08
2023-04-30T05:01:53.307Z,15.97
2023-04-30T05:02:15.506Z,16.05
2023-04-30T05:02:39.991Z,16.00
2023-04-30T05:03:02.493Z,16.07
2023-04-30T05:03:26.527Z,15.79
2023-04-30T05:03:49.580Z,15.94
2023-04-30T05:04:14.084Z,15.86
2023-04-30T05:04:36.344Z,15.95
2023-04-30T05:05:02.064Z,15.78
2023-04-30T05:05:24.336Z,16.04
2023-04-30T05:05:46.917Z,16.09
2023-04-30T05:06:09.198Z,16.07
2023-04-30T05:06:55.333Z,16.01
2023-04-30T05:07:17.978Z,15.54
2023-04-30T05:07:40.204Z,16.03
2023-04-30T05:08:06.051Z,16.02
2023-04-30T05:08:28.131Z,16.00
2023-04-30T05:08:50.502Z,15.71
2023-04-30T05:09:13.504Z,15.75
2023-04-30T05:09:36.902Z,15.71
2023-04-30T05:09:59.044Z,15.74
2023-04-30T05:10:21.558Z,16.02
2023-04-30T05:10:43.580Z,16.04
2023-04-30T05:11:06.951Z,15.84
2023-04-30T05:11:28.956Z,15.46
2023-04-30T05:11:51.093Z,15.81
2023-04-30T05:12:13.254Z,15.99
2023-04-30T05:12:36.481Z,15.94
2023-04-30T05:12:58.460Z,16.07
2023-04-30T05:13:20.691Z,15.93
2023-04-30T05:13:44.209Z,16.07
2023-04-30T05:14:07.156Z,16.09
2023-04-30T05:14:29.474Z,15.82
2023-04-30T05:14:51.901Z,16.01
2023-04-30T05:15:14.143Z,15.96
2023-04-30T05:15:39.081Z,15.89
2023-04-30T05:16:01.066Z,15.98
2023-04-30T05:16:25.366Z,16.06
2023-04-30T05:16:47.878Z,16.09
2023-04-30T05:17:09.972Z,16.13
2023-04-30T05:17:32.834Z,16.12
2023-04-30T05:17:54.740Z,16.13
2023-04-30T05:18:16.968Z,16.15
2023-04-30T05:18:39.265Z,16.01